createdAt,value
2016-11-15T00:00:52.890Z,0
2016-11-15T00:01:52.907Z,0
2016-11-15T00:02:52.917Z,0
2016-11-15T00:03:52.935Z,0
2016-11-15T00:04:52.946Z,0
2016-11-15T00:05:52.966Z,0
2016-11-15T00:07:07.894Z,0
2016-11-15T00:07:52.993Z,0
2016-11-15T00:09:53.029Z,0
2016-11-15T00:10:53.037Z,0
2016-11-15T00:11:53.053Z,0
2016-11-15T00:12:53.074Z,0
2016-11-15T00:13:53.097Z,0
2016-11-15T00:14:53.405Z,0
2016-11-15T00:15:53.119Z,0
2016-11-15T00:16:53.128Z,0
2016-11-15T00:17:53.150Z,0
2016-11-15T00:18:53.162Z,0
2016-11-15T00:19:53.174Z,0
2016-11-15T00:20:53.190Z,0
2016-11-15T00:21:53.207Z,0
2016-11-15T00:22:53.222Z,0
2016-11-15T00:23:53.235Z,0
2016-11-15T00:24:53.253Z,0
2016-11-15T00:25:53.263Z,0
2016-11-15T00:26:53.277Z,0
2016-11-15T00:27:53.304Z,0
2016-11-15T00:28:53.307Z,0
2016-11-15T00:29:53.328Z,0
2016-11-15T00:31:53.353Z,0
2016-11-15T00:32:53.677Z,0
2016-11-15T00:33:53.428Z,0
2016-11-15T00:34:53.403Z,0
2016-11-15T00:35:53.416Z,0
2016-11-15T00:36:53.475Z,0
2016-11-15T00:37:53.460Z,0
2016-11-15T00:38:53.548Z,0
2016-11-15T00:39:53.482Z,0
2016-11-15T00:41:08.404Z,0
2016-11-15T00:41:53.514Z,0
2016-11-15T00:42:53.527Z,0
2016-11-15T00:43:53.588Z,0
2016-11-15T00:45:08.470Z,0
2016-11-15T00:45:53.578Z,0
2016-11-15T00:47:08.499Z,0
2016-11-15T00:47:53.604Z,0
2016-11-15T00:48:53.923Z,0
2016-11-15T00:50:08.544Z,0
2016-11-15T00:50:53.649Z,0
2016-11-15T00:51:53.685Z,0
2016-11-15T00:52:53.684Z,0
2016-11-15T00:53:53.696Z,0
2016-11-15T00:54:53.708Z,0
2016-11-15T00:55:53.722Z,0
2016-11-15T00:56:53.742Z,0
2016-11-15T00:57:53.756Z,0
2016-11-15T00:58:53.780Z,0
2016-11-15T00:59:53.788Z,0
2016-11-15T01:01:53.858Z,0
2016-11-15T01:03:08.744Z,0
2016-11-15T01:03:53.885Z,0
2016-11-15T01:04:53.866Z,0
2016-11-15T01:05:53.884Z,0
2016-11-15T01:06:53.893Z,0
2016-11-15T01:07:53.911Z,0
2016-11-15T01:08:53.952Z,0
2016-11-15T01:09:53.937Z,0
2016-11-15T01:10:53.953Z,0
2016-11-15T01:12:08.882Z,0
2016-11-15T01:12:53.983Z,0
2016-11-15T01:13:54.003Z,0
2016-11-15T01:14:54.020Z,0
2016-11-15T01:15:54.035Z,0
2016-11-15T01:17:08.962Z,0
2016-11-15T01:17:54.067Z,0
2016-11-15T01:19:08.994Z,0
2016-11-15T01:19:54.092Z,0
2016-11-15T01:20:54.110Z,0
2016-11-15T01:21:54.128Z,0
2016-11-15T01:22:54.138Z,0
2016-11-15T01:23:54.159Z,0
2016-11-15T01:24:54.178Z,0
2016-11-15T01:25:54.184Z,0
2016-11-15T01:26:54.198Z,0
2016-11-15T01:27:54.256Z,0
2016-11-15T01:28:54.272Z,0
2016-11-15T01:31:09.180Z,0
2016-11-15T01:31:54.281Z,0
2016-11-15T01:32:54.296Z,0
2016-11-15T01:34:09.235Z,0
2016-11-15T01:34:54.333Z,0
2016-11-15T01:35:54.347Z,0
2016-11-15T01:36:54.360Z,0
2016-11-15T01:37:54.378Z,0
2016-11-15T01:38:54.391Z,0
2016-11-15T01:39:54.402Z,0
2016-11-15T01:41:09.337Z,0
2016-11-15T01:41:54.442Z,0
2016-11-15T01:42:54.448Z,0
2016-11-15T01:43:54.468Z,0
2016-11-15T01:44:54.487Z,0
2016-11-15T01:45:54.499Z,0
2016-11-15T01:46:54.510Z,0
2016-11-15T01:47:54.528Z,0
2016-11-15T01:48:54.542Z,0
2016-11-15T01:49:54.561Z,0
2016-11-15T01:50:54.574Z,0
2016-11-15T01:51:54.591Z,0
2016-11-15T01:52:54.608Z,0
2016-11-15T01:53:54.616Z,0
2016-11-15T01:54:54.643Z,0
2016-11-15T01:55:54.656Z,0
2016-11-15T01:56:54.670Z,0
2016-11-15T01:57:54.686Z,0
2016-11-15T01:59:09.613Z,0
2016-11-15T01:59:54.717Z,0
2016-11-15T02:00:54.785Z,0
2016-11-15T02:02:54.763Z,0
2016-11-15T02:03:54.779Z,0
2016-11-15T02:05:09.708Z,0
2016-11-15T02:06:24.638Z,0
2016-11-15T02:06:54.824Z,0
2016-11-15T02:07:54.892Z,0
2016-11-15T02:08:54.892Z,0
2016-11-15T02:09:54.869Z,0
2016-11-15T02:10:54.889Z,0
2016-11-15T02:11:54.903Z,0
2016-11-15T02:12:54.925Z,0
2016-11-15T02:13:54.936Z,0
2016-11-15T02:14:54.953Z,0
2016-11-15T02:15:54.970Z,0
2016-11-15T02:16:54.989Z,0
2016-11-15T02:17:54.998Z,0
2016-11-15T02:19:09.928Z,0
2016-11-15T02:20:09.944Z,0
2016-11-15T02:20:55.048Z,0
2016-11-15T02:22:55.082Z,0
2016-11-15T02:24:10.003Z,0
2016-11-15T02:24:55.107Z,0
2016-11-15T02:25:55.127Z,0
2016-11-15T02:26:55.140Z,0
2016-11-15T02:28:10.067Z,0
2016-11-15T02:28:55.170Z,0
2016-11-15T02:29:55.192Z,0
2016-11-15T02:30:55.202Z,0
2016-11-15T02:31:55.216Z,0
2016-11-15T02:32:55.228Z,0
2016-11-15T02:33:55.291Z,0
2016-11-15T02:34:55.265Z,0
2016-11-15T02:35:55.290Z,0
2016-11-15T02:37:10.209Z,0
2016-11-15T02:38:25.138Z,0
2016-11-15T02:38:55.324Z,0
2016-11-15T02:39:55.341Z,0
2016-11-15T02:40:55.363Z,0
2016-11-15T02:42:10.299Z,0
2016-11-15T02:42:55.394Z,0
2016-11-15T02:43:55.404Z,0
2016-11-15T02:44:55.428Z,0
2016-11-15T02:45:55.434Z,0
2016-11-15T02:46:55.455Z,0
2016-11-15T02:47:55.471Z,0
2016-11-15T02:49:55.500Z,0
2016-11-15T02:50:55.516Z,0
2016-11-15T02:51:55.685Z,0
2016-11-15T02:52:55.544Z,0
2016-11-15T02:54:25.389Z,0
2016-11-15T02:54:55.580Z,0
2016-11-15T02:55:55.902Z,0
2016-11-15T02:56:55.611Z,0
2016-11-15T02:57:55.633Z,0
2016-11-15T02:58:55.641Z,0
2016-11-15T02:59:55.664Z,0
2016-11-15T03:00:55.674Z,0
2016-11-15T03:01:55.689Z,0
2016-11-15T03:03:10.614Z,0
2016-11-15T03:04:10.627Z,0
2016-11-15T03:04:55.740Z,0
2016-11-15T03:05:55.755Z,0
2016-11-15T03:06:56.100Z,0
2016-11-15T03:08:10.694Z,0
2016-11-15T03:09:10.708Z,0
2016-11-15T03:09:55.806Z,0
2016-11-15T03:10:55.821Z,0
2016-11-15T03:11:55.848Z,0
2016-11-15T03:12:55.865Z,0
2016-11-15T03:13:55.914Z,0
2016-11-15T03:15:10.808Z,0
2016-11-15T03:15:55.912Z,0
2016-11-15T03:16:55.925Z,0
2016-11-15T03:17:55.938Z,0
2016-11-15T03:18:55.952Z,0
2016-11-15T03:19:55.965Z,0
2016-11-15T03:23:10.931Z,0
2016-11-15T03:23:56.040Z,0
2016-11-15T03:24:56.045Z,0
2016-11-15T03:26:10.974Z,0
2016-11-15T03:26:56.079Z,0
2016-11-15T03:27:56.095Z,0
2016-11-15T03:28:56.112Z,0
2016-11-15T03:29:56.125Z,0
2016-11-15T03:31:11.056Z,0
2016-11-15T03:31:56.156Z,0
2016-11-15T03:32:56.174Z,0
2016-11-15T03:33:56.188Z,0
2016-11-15T03:34:56.240Z,0
2016-11-15T03:35:56.258Z,0
2016-11-15T03:37:56.257Z,0
2016-11-15T03:38:56.265Z,0
2016-11-15T03:39:56.275Z,0
2016-11-15T03:41:11.215Z,0
2016-11-15T03:41:56.351Z,0
2016-11-15T03:42:56.324Z,0
2016-11-15T03:44:11.255Z,0
2016-11-15T03:44:56.417Z,0
2016-11-15T03:45:56.375Z,0
2016-11-15T03:46:56.396Z,0
2016-11-15T03:48:11.320Z,0
2016-11-15T03:49:11.337Z,0
2016-11-15T03:49:56.443Z,0
2016-11-15T03:50:56.458Z,0
2016-11-15T03:51:56.470Z,0
2016-11-15T03:52:56.485Z,0
2016-11-15T03:53:56.509Z,0
2016-11-15T03:54:56.522Z,0
2016-11-15T03:57:11.462Z,0
2016-11-15T03:57:56.569Z,0
2016-11-15T03:58:56.587Z,0
2016-11-15T03:59:56.595Z,0
2016-11-15T04:00:56.623Z,0
2016-11-15T04:01:56.628Z,0
2016-11-15T04:03:11.560Z,0
2016-11-15T04:03:56.659Z,0
2016-11-15T04:04:56.675Z,0
2016-11-15T04:06:11.915Z,0
2016-11-15T04:06:56.709Z,0
2016-11-15T04:07:56.721Z,0
2016-11-15T04:09:11.654Z,0
2016-11-15T04:09:56.764Z,0
2016-11-15T04:10:56.776Z,0
2016-11-15T04:11:56.781Z,0
2016-11-15T04:13:26.628Z,0
2016-11-15T04:13:56.812Z,0
2016-11-15T04:14:56.834Z,0
2016-11-15T04:15:56.849Z,0
2016-11-15T04:17:11.778Z,0
2016-11-15T04:17:56.881Z,0
2016-11-15T04:18:56.897Z,0
2016-11-15T04:19:56.909Z,0
2016-11-15T04:20:56.927Z,0
2016-11-15T04:21:56.946Z,0
2016-11-15T04:22:56.955Z,0
2016-11-15T04:23:56.973Z,0
2016-11-15T04:24:56.987Z,0
2016-11-15T04:25:57.050Z,0
2016-11-15T04:26:57.025Z,0
2016-11-15T04:27:57.042Z,0
2016-11-15T04:29:57.071Z,0
2016-11-15T04:30:57.083Z,0
2016-11-15T04:31:57.101Z,0
2016-11-15T04:33:12.033Z,0
2016-11-15T04:33:57.130Z,0
2016-11-15T04:34:57.149Z,0
2016-11-15T04:36:12.115Z,0
2016-11-15T04:36:57.178Z,0
2016-11-15T04:37:57.192Z,0
2016-11-15T04:38:57.211Z,0
2016-11-15T04:40:12.142Z,0
2016-11-15T04:40:57.288Z,0
2016-11-15T04:41:57.255Z,0
2016-11-15T04:42:57.272Z,0
2016-11-15T04:44:57.306Z,0
2016-11-15T04:45:57.319Z,0
2016-11-15T04:46:57.338Z,0
2016-11-15T04:48:12.273Z,0
2016-11-15T04:48:57.365Z,0
2016-11-15T04:49:57.383Z,0
2016-11-15T04:51:12.315Z,0
2016-11-15T04:52:12.335Z,0
2016-11-15T04:53:12.357Z,0
2016-11-15T04:53:57.450Z,0
2016-11-15T04:54:57.467Z,0
2016-11-15T04:55:57.478Z,0
2016-11-15T04:56:57.495Z,0
2016-11-15T04:57:57.546Z,0
2016-11-15T04:58:57.530Z,0
2016-11-15T04:59:57.550Z,0
2016-11-15T05:00:57.566Z,0
2016-11-15T05:01:57.569Z,0
2016-11-15T05:02:57.591Z,0
2016-11-15T05:03:57.651Z,0
2016-11-15T05:04:57.616Z,0
2016-11-15T05:05:57.643Z,0
2016-11-15T05:06:57.651Z,0
2016-11-15T05:07:57.668Z,0
2016-11-15T05:08:57.690Z,0
2016-11-15T05:09:57.701Z,0
2016-11-15T05:10:57.719Z,0
2016-11-15T05:11:57.729Z,0
2016-11-15T05:13:12.663Z,0
2016-11-15T05:13:57.758Z,0
2016-11-15T05:14:57.779Z,0
2016-11-15T05:16:27.623Z,0
2016-11-15T05:16:57.845Z,0
2016-11-15T05:17:57.831Z,0
2016-11-15T05:18:57.881Z,0
2016-11-15T05:19:57.893Z,0
2016-11-15T05:20:57.912Z,0
2016-11-15T05:21:57.894Z,0
2016-11-15T05:22:57.938Z,0
2016-11-15T05:23:57.925Z,0
2016-11-15T05:24:57.939Z,0
2016-11-15T05:25:57.956Z,0
2016-11-15T05:26:57.969Z,0
2016-11-15T05:28:12.903Z,0
2016-11-15T05:28:58.039Z,0
2016-11-15T05:29:58.021Z,0
2016-11-15T05:30:58.029Z,0
2016-11-15T05:32:12.963Z,0
2016-11-15T05:32:58.072Z,0
2016-11-15T05:33:58.284Z,0
2016-11-15T05:34:58.100Z,0
2016-11-15T05:36:58.132Z,0
2016-11-15T05:37:58.144Z,0
2016-11-15T05:38:58.164Z,0
2016-11-15T05:39:58.176Z,0
2016-11-15T05:40:58.196Z,0
2016-11-15T05:41:58.206Z,0
2016-11-15T05:42:58.234Z,0
2016-11-15T05:43:58.243Z,0
2016-11-15T05:44:58.259Z,0
2016-11-15T05:45:58.272Z,0
2016-11-15T05:46:58.288Z,0
2016-11-15T05:48:28.133Z,0
2016-11-15T05:48:58.322Z,0
2016-11-15T05:49:58.337Z,0
2016-11-15T05:50:58.354Z,0
2016-11-15T05:51:58.372Z,0
2016-11-15T05:53:13.310Z,0
2016-11-15T05:53:58.402Z,0
2016-11-15T05:54:58.418Z,0
2016-11-15T05:55:58.437Z,0
2016-11-15T05:56:58.447Z,0
2016-11-15T05:57:58.469Z,0
2016-11-15T05:58:58.490Z,4
2016-11-15T05:59:58.499Z,4
2016-11-15T06:00:58.571Z,0
2016-11-15T06:02:58.543Z,4
2016-11-15T06:04:13.475Z,4
2016-11-15T06:04:58.586Z,4
2016-11-15T06:06:58.611Z,8
2016-11-15T06:07:58.665Z,4
2016-11-15T06:08:58.645Z,8
2016-11-15T06:09:58.661Z,8
2016-11-15T06:10:58.673Z,8
2016-11-15T06:11:58.695Z,12
2016-11-15T06:12:58.706Z,16
2016-11-15T06:14:13.634Z,20
2016-11-15T06:14:58.738Z,20
2016-11-15T06:15:58.759Z,20
2016-11-15T06:16:58.772Z,20
2016-11-15T06:17:58.788Z,28
2016-11-15T06:19:13.752Z,28
2016-11-15T06:19:58.827Z,28
2016-11-15T06:20:58.842Z,28
2016-11-15T06:21:58.856Z,36
2016-11-15T06:22:58.868Z,36
2016-11-15T06:23:58.885Z,44
2016-11-15T06:24:58.912Z,48
2016-11-15T06:25:58.922Z,48
2016-11-15T06:26:58.938Z,56
2016-11-15T06:27:58.950Z,56
2016-11-15T06:28:58.966Z,64
2016-11-15T06:29:58.992Z,72
2016-11-15T06:30:58.999Z,76
2016-11-15T06:31:59.014Z,88
2016-11-15T06:32:59.038Z,100
2016-11-15T06:33:59.053Z,116
2016-11-15T06:34:59.078Z,132
2016-11-15T06:35:59.082Z,148
2016-11-15T06:36:59.097Z,164
2016-11-15T06:37:59.115Z,176
2016-11-15T06:38:59.168Z,180
2016-11-15T06:39:59.180Z,180
2016-11-15T06:40:59.175Z,176
2016-11-15T06:41:59.182Z,180
2016-11-15T06:42:59.196Z,188
2016-11-15T06:43:59.212Z,200
2016-11-15T06:44:59.224Z,216
2016-11-15T06:45:59.247Z,228
2016-11-15T06:46:59.298Z,240
2016-11-15T06:47:59.277Z,252
2016-11-15T06:48:59.296Z,268
2016-11-15T06:49:59.308Z,280
2016-11-15T06:51:14.239Z,296
2016-11-15T06:51:59.376Z,304
2016-11-15T06:52:59.361Z,324
2016-11-15T06:53:59.416Z,340
2016-11-15T06:54:59.391Z,360
2016-11-15T06:55:59.406Z,376
2016-11-15T06:56:59.420Z,384
2016-11-15T06:57:59.438Z,388
2016-11-15T06:58:59.456Z,400
2016-11-15T06:59:59.470Z,408
2016-11-15T07:00:59.491Z,416
2016-11-15T07:01:59.498Z,428
2016-11-15T07:02:59.526Z,444
2016-11-15T07:03:59.533Z,452
2016-11-15T07:05:14.467Z,468
2016-11-15T07:06:14.483Z,472
2016-11-15T07:07:14.502Z,488
2016-11-15T07:07:59.604Z,504
2016-11-15T07:08:59.616Z,520
2016-11-15T07:09:59.642Z,544
2016-11-15T07:10:59.647Z,568
2016-11-15T07:11:59.665Z,600
2016-11-15T07:12:59.680Z,620
2016-11-15T07:13:59.698Z,636
2016-11-15T07:15:14.629Z,620
2016-11-15T07:15:59.731Z,600
2016-11-15T07:16:59.745Z,576
2016-11-15T07:17:59.762Z,556
2016-11-15T07:18:59.779Z,540
2016-11-15T07:20:14.712Z,524
2016-11-15T07:20:59.809Z,516
2016-11-15T07:21:59.834Z,504
2016-11-15T07:23:14.756Z,488
2016-11-15T07:23:59.858Z,480
2016-11-15T07:24:59.878Z,476
2016-11-15T07:25:59.896Z,492
2016-11-15T07:26:59.909Z,520
2016-11-15T07:27:59.925Z,556
2016-11-15T07:28:59.944Z,600
2016-11-15T07:29:59.959Z,648
2016-11-15T07:31:14.943Z,708
2016-11-15T07:32:14.904Z,756
2016-11-15T07:33:00.011Z,796
2016-11-15T07:34:14.939Z,852
2016-11-15T07:35:00.040Z,880
2016-11-15T07:36:00.057Z,896
2016-11-15T07:37:00.074Z,900
2016-11-15T07:38:00.089Z,904
2016-11-15T07:39:15.027Z,908
2016-11-15T07:40:00.126Z,916
2016-11-15T07:41:00.139Z,940
2016-11-15T07:42:00.306Z,964
2016-11-15T07:43:00.175Z,992
2016-11-15T07:44:00.191Z,1028
2016-11-15T07:45:00.210Z,1068
2016-11-15T07:46:00.263Z,1104
2016-11-15T07:47:00.310Z,1136
2016-11-15T07:48:00.259Z,1160
2016-11-15T07:49:15.185Z,1168
2016-11-15T07:50:00.294Z,1180
2016-11-15T07:51:00.677Z,1176
2016-11-15T07:52:00.325Z,1168
2016-11-15T07:53:00.337Z,1172
2016-11-15T07:54:30.188Z,1192
2016-11-15T07:55:00.382Z,1196
2016-11-15T07:56:00.406Z,1208
2016-11-15T07:57:00.416Z,1228
2016-11-15T07:58:00.426Z,1264
2016-11-15T07:59:00.444Z,1280
2016-11-15T08:00:00.465Z,1272
2016-11-15T08:01:00.481Z,1260
2016-11-15T08:02:00.496Z,1264
2016-11-15T08:03:00.511Z,1280
2016-11-15T08:04:00.533Z,1300
2016-11-15T08:05:00.541Z,1316
2016-11-15T08:06:00.569Z,1324
2016-11-15T08:08:00.601Z,1384
2016-11-15T08:10:00.950Z,1552
2016-11-15T08:11:00.647Z,1644
2016-11-15T08:12:00.667Z,1712
2016-11-15T08:13:00.701Z,1768
2016-11-15T08:14:00.752Z,1808
2016-11-15T08:15:00.714Z,1816
2016-11-15T08:16:15.646Z,1804
2016-11-15T08:17:15.664Z,1764
2016-11-15T08:18:00.772Z,1724
2016-11-15T08:19:00.786Z,1684
2016-11-15T08:20:00.836Z,1644
2016-11-15T08:21:00.821Z,1604
2016-11-15T08:22:00.841Z,1560
2016-11-15T08:23:00.865Z,1532
2016-11-15T08:25:00.897Z,1496
2016-11-15T08:26:15.819Z,1452
2016-11-15T08:27:01.231Z,1432
2016-11-15T08:28:00.939Z,1416
2016-11-15T08:30:00.976Z,1356
2016-11-15T08:31:16.213Z,1308
2016-11-15T08:32:01.013Z,1284
2016-11-15T08:33:01.025Z,1280
2016-11-15T08:34:01.042Z,1304
2016-11-15T08:35:01.369Z,1340
2016-11-15T08:36:01.074Z,1380
2016-11-15T08:37:01.158Z,1408
2016-11-15T08:38:01.106Z,1432
2016-11-15T08:41:01.163Z,1620
2016-11-15T08:42:16.089Z,1764
2016-11-15T08:43:01.197Z,1836
2016-11-15T08:44:16.123Z,1904
2016-11-15T08:45:01.231Z,1920
2016-11-15T08:46:01.244Z,1924
2016-11-15T08:47:01.262Z,1904
2016-11-15T08:48:01.280Z,1880
2016-11-15T08:49:01.303Z,1880
2016-11-15T08:50:16.228Z,1880
2016-11-15T08:51:16.243Z,1868
2016-11-15T08:52:16.317Z,1852
2016-11-15T08:53:01.377Z,1828
2016-11-15T08:54:01.390Z,1792
2016-11-15T08:55:05.826Z,1748
2016-11-15T08:56:01.426Z,1732
2016-11-15T08:57:01.432Z,1724
2016-11-15T08:58:16.368Z,1768
2016-11-15T08:59:01.503Z,1800
2016-11-15T09:00:01.486Z,1832
2016-11-15T09:01:01.554Z,1860
2016-11-15T09:02:01.542Z,1916
2016-11-15T09:03:01.543Z,1944
2016-11-15T09:04:01.558Z,1920
2016-11-15T09:05:01.576Z,1896
2016-11-15T09:06:01.624Z,1904
2016-11-15T09:07:16.521Z,1932
2016-11-15T09:08:01.634Z,1972
2016-11-15T09:09:01.648Z,2048
2016-11-15T09:10:01.660Z,2160
2016-11-15T09:11:16.596Z,2272
2016-11-15T09:12:01.697Z,2320
2016-11-15T09:13:01.720Z,2412
2016-11-15T09:14:16.644Z,2476
2016-11-15T09:15:01.744Z,2520
2016-11-15T09:16:01.771Z,2604
2016-11-15T09:18:01.803Z,2804
2016-11-15T09:19:02.122Z,2800
2016-11-15T09:20:02.144Z,2760
2016-11-15T09:21:01.861Z,2760
2016-11-15T09:22:01.874Z,2724
2016-11-15T09:23:01.901Z,2620
2016-11-15T09:24:01.907Z,2444
2016-11-15T09:25:01.921Z,2320
2016-11-15T09:26:01.943Z,2172
2016-11-15T09:27:01.992Z,2028
2016-11-15T09:28:02.010Z,1900
2016-11-15T09:29:16.913Z,1820
2016-11-15T09:30:02.019Z,1804
2016-11-15T09:31:16.945Z,1792
2016-11-15T09:32:02.050Z,1796
2016-11-15T09:33:02.069Z,1768
2016-11-15T09:34:02.437Z,1744
2016-11-15T09:35:02.106Z,1764
2016-11-15T09:37:02.139Z,1840
2016-11-15T09:38:02.160Z,1888
2016-11-15T09:39:02.174Z,1916
2016-11-15T09:40:02.187Z,1952
2016-11-15T09:41:02.206Z,1964
2016-11-15T09:42:02.758Z,1968
2016-11-15T09:43:02.415Z,1992
2016-11-15T09:44:17.177Z,2024
2016-11-15T09:45:02.277Z,1976
2016-11-15T09:46:02.298Z,1832
2016-11-15T09:47:02.309Z,1704
2016-11-15T09:48:02.337Z,1616
2016-11-15T09:49:17.267Z,1540
2016-11-15T09:50:02.372Z,1528
2016-11-15T09:51:17.302Z,1508
2016-11-15T09:52:02.422Z,1528
2016-11-15T09:53:02.423Z,1580
2016-11-15T09:54:02.745Z,1640
2016-11-15T09:55:02.487Z,1632
2016-11-15T09:56:02.475Z,1588
2016-11-15T09:57:02.491Z,1528
2016-11-15T09:58:02.510Z,1440
2016-11-15T09:59:02.523Z,1384
2016-11-15T10:01:32.391Z,1288
2016-11-15T10:02:02.588Z,1292
2016-11-15T10:03:02.603Z,1256
2016-11-15T10:04:02.616Z,1268
2016-11-15T10:05:02.680Z,1336
2016-11-15T10:06:02.657Z,1388
2016-11-15T10:07:02.675Z,1392
2016-11-15T10:08:17.597Z,1384
2016-11-15T10:09:17.664Z,1412
2016-11-15T10:10:02.818Z,1436
2016-11-15T10:11:17.649Z,1492
2016-11-15T10:12:03.094Z,1520
2016-11-15T10:13:02.768Z,1556
2016-11-15T10:14:02.787Z,1588
2016-11-15T10:15:02.807Z,1576
2016-11-15T10:16:17.738Z,1640
2016-11-15T10:18:02.860Z,1652
2016-11-15T10:19:02.887Z,1820
2016-11-15T10:20:02.893Z,1864
2016-11-15T10:21:02.958Z,1968
2016-11-15T10:22:03.515Z,1932
2016-11-15T10:23:02.943Z,1908
2016-11-15T10:24:02.966Z,1904
2016-11-15T10:25:03.431Z,1964
2016-11-15T10:26:03.449Z,1896
2016-11-15T10:27:03.361Z,1928
2016-11-15T10:28:03.034Z,2044
2016-11-15T10:29:03.051Z,1912
2016-11-15T10:30:03.214Z,1788
2016-11-15T10:31:18.047Z,1704
2016-11-15T10:32:04.256Z,1704
2016-11-15T10:33:18.083Z,1684
2016-11-15T10:34:18.099Z,1672
2016-11-15T10:35:03.208Z,1628
2016-11-15T10:36:04.418Z,1576
2016-11-15T10:37:03.587Z,1808
2016-11-15T10:38:03.202Z,1788
2016-11-15T10:39:03.326Z,1664
2016-11-15T10:40:03.289Z,1552
2016-11-15T10:41:03.668Z,1532
2016-11-15T10:42:03.474Z,1540
2016-11-15T10:43:03.295Z,1520
2016-11-15T10:44:03.415Z,1620
2016-11-15T10:45:03.430Z,1436
2016-11-15T10:46:18.359Z,1268
2016-11-15T10:47:18.277Z,1232
2016-11-15T10:48:03.494Z,1296
2016-11-15T10:49:33.225Z,1532
2016-11-15T10:50:03.754Z,1544
2016-11-15T10:53:03.867Z,1564
2016-11-15T10:54:04.806Z,1540
2016-11-15T10:55:18.462Z,1332
2016-11-15T10:56:03.565Z,1436
2016-11-15T10:57:03.552Z,1396
2016-11-15T10:58:03.666Z,1512
2016-11-15T10:59:04.027Z,1520
2016-11-15T11:00:18.505Z,1628
2016-11-15T11:01:04.058Z,1912
2016-11-15T11:02:03.873Z,1584
2016-11-15T11:04:18.575Z,1788
2016-11-15T11:05:04.034Z,1656
2016-11-15T11:06:03.738Z,1772
2016-11-15T11:07:03.763Z,1676
2016-11-15T11:08:03.723Z,1580
2016-11-15T11:09:03.747Z,1488
2016-11-15T11:10:18.724Z,1224
2016-11-15T11:11:03.782Z,1192
2016-11-15T11:12:04.001Z,1196
2016-11-15T11:13:19.623Z,1160
2016-11-15T11:14:04.432Z,1112
2016-11-15T11:15:03.947Z,1092
2016-11-15T11:16:18.829Z,1096
2016-11-15T11:17:03.927Z,1172
2016-11-15T11:18:03.896Z,1184
2016-11-15T11:19:04.167Z,1152
2016-11-15T11:20:03.984Z,1228
2016-11-15T11:21:04.099Z,1272
2016-11-15T11:22:03.970Z,1224
2016-11-15T11:23:04.035Z,1276
2016-11-15T11:24:04.059Z,1424
2016-11-15T11:25:18.936Z,1388
2016-11-15T11:26:04.442Z,1504
2016-11-15T11:27:04.103Z,1508
2016-11-15T11:28:04.170Z,1576
2016-11-15T11:29:19.012Z,1560
2016-11-15T11:30:04.101Z,1464
2016-11-15T11:31:04.120Z,1440
2016-11-15T11:32:04.140Z,1356
2016-11-15T11:33:19.071Z,1300
2016-11-15T11:34:19.087Z,1240
2016-11-15T11:36:34.035Z,1160
2016-11-15T11:37:04.226Z,1148
2016-11-15T11:38:04.246Z,1168
2016-11-15T11:39:04.255Z,1084
2016-11-15T11:40:04.279Z,1116
2016-11-15T11:41:04.293Z,1144
2016-11-15T11:42:19.274Z,1180
2016-11-15T11:43:04.325Z,1228
2016-11-15T11:44:19.255Z,1180
2016-11-15T11:45:04.362Z,1164
2016-11-15T11:46:04.380Z,1124
2016-11-15T11:47:04.395Z,1080
2016-11-15T11:48:04.410Z,948
2016-11-15T11:49:04.433Z,896
2016-11-15T11:50:04.446Z,936
2016-11-15T11:52:19.393Z,992
2016-11-15T11:53:04.503Z,912
2016-11-15T11:54:04.563Z,872
2016-11-15T11:55:04.530Z,904
2016-11-15T11:56:04.548Z,848
2016-11-15T11:57:04.566Z,780
2016-11-15T11:58:19.499Z,664
2016-11-15T11:59:04.613Z,624
2016-11-15T12:00:19.529Z,592
2016-11-15T12:01:19.548Z,560
2016-11-15T12:02:04.649Z,516
2016-11-15T12:03:19.587Z,468
2016-11-15T12:04:04.686Z,468
2016-11-15T12:05:04.704Z,460
2016-11-15T12:06:04.720Z,456
2016-11-15T12:07:04.736Z,476
2016-11-15T12:08:19.668Z,464
2016-11-15T12:10:04.789Z,544
2016-11-15T12:11:04.797Z,540
2016-11-15T12:12:04.825Z,568
2016-11-15T12:13:04.843Z,632
2016-11-15T12:14:04.884Z,628
2016-11-15T12:15:19.788Z,728
2016-11-15T12:16:04.898Z,740
2016-11-15T12:17:19.825Z,800
2016-11-15T12:18:04.925Z,876
2016-11-15T12:19:04.990Z,936
2016-11-15T12:20:19.875Z,1024
2016-11-15T12:21:04.978Z,1092
2016-11-15T12:22:04.995Z,1072
2016-11-15T12:23:05.008Z,1080
2016-11-15T12:24:20.260Z,1044
2016-11-15T12:25:05.049Z,1024
2016-11-15T12:27:05.085Z,1120
2016-11-15T12:28:05.097Z,1016
2016-11-15T12:29:20.029Z,1148
2016-11-15T12:30:05.130Z,1144
2016-11-15T12:31:05.145Z,1100
2016-11-15T12:32:05.467Z,1012
2016-11-15T12:33:20.100Z,996
2016-11-15T12:34:05.197Z,984
2016-11-15T12:36:05.240Z,956
2016-11-15T12:37:05.248Z,976
2016-11-15T12:38:05.262Z,876
2016-11-15T12:39:20.200Z,860
2016-11-15T12:41:05.322Z,836
2016-11-15T12:42:05.377Z,772
2016-11-15T12:43:05.353Z,780
2016-11-15T12:44:05.401Z,832
2016-11-15T12:45:05.383Z,796
2016-11-15T12:46:05.400Z,768
2016-11-15T12:47:05.419Z,728
2016-11-15T12:48:05.438Z,688
2016-11-15T12:49:05.454Z,712
2016-11-15T12:50:05.471Z,704
2016-11-15T12:51:20.405Z,732
2016-11-15T12:52:20.421Z,812
2016-11-15T12:53:05.519Z,832
2016-11-15T12:54:05.889Z,824
2016-11-15T12:55:05.554Z,808
2016-11-15T12:56:05.576Z,788
2016-11-15T12:57:05.638Z,788
2016-11-15T12:58:05.608Z,792
2016-11-15T12:59:05.627Z,760
2016-11-15T13:00:05.647Z,848
2016-11-15T13:01:05.655Z,836
2016-11-15T13:02:05.682Z,788
2016-11-15T13:03:05.696Z,868
2016-11-15T13:04:05.707Z,784
2016-11-15T13:05:05.726Z,784
2016-11-15T13:06:05.744Z,860
2016-11-15T13:07:05.777Z,860
2016-11-15T13:09:05.797Z,788
2016-11-15T13:12:05.848Z,748
2016-11-15T13:13:05.862Z,748
2016-11-15T13:14:05.913Z,708
2016-11-15T13:15:05.895Z,672
2016-11-15T13:16:05.918Z,712
2016-11-15T13:17:06.403Z,656
2016-11-15T13:18:05.952Z,708
2016-11-15T13:19:06.018Z,712
2016-11-15T13:20:20.893Z,712
2016-11-15T13:21:05.994Z,696
2016-11-15T13:22:06.017Z,680
2016-11-15T13:23:20.998Z,692
2016-11-15T13:24:06.357Z,684
2016-11-15T13:25:06.065Z,656
2016-11-15T13:26:06.082Z,636
2016-11-15T13:27:21.019Z,704
2016-11-15T13:28:06.120Z,708
2016-11-15T13:29:06.136Z,744
2016-11-15T13:30:06.155Z,684
2016-11-15T13:31:06.171Z,704
2016-11-15T13:32:06.189Z,740
2016-11-15T13:33:06.547Z,660
2016-11-15T13:34:06.564Z,652
2016-11-15T13:35:06.238Z,668
2016-11-15T13:36:06.257Z,556
2016-11-15T13:37:21.190Z,564
2016-11-15T13:38:06.294Z,496
2016-11-15T13:39:06.306Z,524
2016-11-15T13:40:06.323Z,492
2016-11-15T13:41:06.382Z,504
2016-11-15T13:42:06.367Z,448
2016-11-15T13:45:06.415Z,392
2016-11-15T13:46:06.430Z,388
2016-11-15T13:47:06.444Z,380
2016-11-15T13:48:06.468Z,352
2016-11-15T13:49:21.390Z,360
2016-11-15T13:50:06.492Z,316
2016-11-15T13:51:21.422Z,360
2016-11-15T13:52:06.816Z,316
2016-11-15T13:53:06.550Z,304
2016-11-15T13:54:06.563Z,328
2016-11-15T13:55:06.624Z,320
2016-11-15T13:56:06.596Z,332
2016-11-15T13:57:06.619Z,332
2016-11-15T13:58:06.630Z,332
2016-11-15T13:59:21.560Z,340
2016-11-15T14:00:06.718Z,320
2016-11-15T14:01:06.684Z,364
2016-11-15T14:02:06.703Z,340
2016-11-15T14:03:06.721Z,320
2016-11-15T14:04:06.764Z,316
2016-11-15T14:05:06.748Z,336
2016-11-15T14:06:06.763Z,328
2016-11-15T14:07:06.815Z,324
2016-11-15T14:08:06.802Z,308
2016-11-15T14:09:06.814Z,308
2016-11-15T14:10:06.835Z,308
2016-11-15T14:11:06.850Z,312
2016-11-15T14:12:06.865Z,308
2016-11-15T14:13:06.917Z,292
2016-11-15T14:14:36.731Z,300
2016-11-15T14:15:06.920Z,292
2016-11-15T14:16:06.991Z,288
2016-11-15T14:19:06.987Z,276
2016-11-15T14:20:07.003Z,256
2016-11-15T14:21:07.017Z,244
2016-11-15T14:22:07.036Z,252
2016-11-15T14:23:21.966Z,276
2016-11-15T14:24:07.074Z,272
2016-11-15T14:25:07.090Z,260
2016-11-15T14:26:07.107Z,308
2016-11-15T14:27:07.125Z,284
2016-11-15T14:28:07.140Z,292
2016-11-15T14:29:07.159Z,272
2016-11-15T14:30:07.175Z,260
2016-11-15T14:31:07.195Z,228
2016-11-15T14:33:07.525Z,188
2016-11-15T14:34:07.247Z,188
2016-11-15T14:35:07.266Z,192
2016-11-15T14:36:22.194Z,168
2016-11-15T14:37:07.294Z,164
2016-11-15T14:38:07.316Z,136
2016-11-15T14:39:22.345Z,148
2016-11-15T14:40:07.350Z,140
2016-11-15T14:41:07.362Z,136
2016-11-15T14:42:07.683Z,132
2016-11-15T14:43:22.311Z,112
2016-11-15T14:44:22.328Z,124
2016-11-15T14:45:07.427Z,124
2016-11-15T14:47:07.468Z,104